Time;durP1;ratioP1;P1;durP2;ratioP2;P2;SDS_P1;SDS_P2;PMS_P1;PMS_P2;Temp;Humidity;BMP_temperature;BMP_pressure;BME280_temperature;BME280_humidity;BME280_pressure;Samples;Min_cycle;Max_cycle;Signal;HPM_P1;HPM_P2
2023/03/28 00:00:21;;;;;;;36.83;7.93;;;15.40;53.60;;;;;;5089814;28;20207;-88
2023/03/28 00:02:49;;;;;;;32.53;7.67;;;15.40;53.60;;;;;;5088187;28;20571;-88
2023/03/28 00:05:17;;;;;;;28.93;7.57;;;15.40;53.50;;;;;;5087873;28;20205;-88
2023/03/28 00:07:44;;;;;;;32.83;7.77;;;15.40;53.60;;;;;;5084474;28;20212;-87
2023/03/28 00:10:11;;;;;;;27.90;7.57;;;15.40;53.60;;;;;;5088276;28;20208;-88
2023/03/28 00:12:38;;;;;;;24.90;7.17;;;15.30;53.50;;;;;;5088605;28;20227;-88
2023/03/28 00:15:06;;;;;;;32.77;7.90;;;15.30;53.50;;;;;;5088140;28;20675;-87
2023/03/28 00:17:33;;;;;;;28.70;7.23;;;15.30;53.50;;;;;;5077821;28;20214;-91
2023/03/28 00:20:03;;;;;;;26.30;7.20;;;15.30;53.90;;;;;;5088734;28;20199;-89
2023/03/28 00:22:30;;;;;;;32.67;7.63;;;15.30;53.50;;;;;;5087339;28;20204;-86
2023/03/28 00:24:58;;;;;;;35.03;7.60;;;15.30;53.50;;;;;;5087394;28;20206;-88
2023/03/28 00:27:25;;;;;;;29.57;7.37;;;15.30;53.50;;;;;;5087792;28;20223;-92
2023/03/28 00:29:52;;;;;;;35.47;7.77;;;15.20;53.50;;;;;;5088170;28;20203;-88
2023/03/28 00:32:19;;;;;;;30.67;7.03;;;15.20;53.50;;;;;;5088353;28;20246;-90
2023/03/28 00:34:46;;;;;;;31.00;7.77;;;15.20;53.40;;;;;;5068381;28;20242;-88
2023/03/28 00:37:16;;;;;;;33.10;8.17;;;15.20;53.50;;;;;;5074632;28;20643;-89
2023/03/28 00:39:48;;;;;;;52.97;9.07;;;15.20;53.40;;;;;;5088275;28;20209;-88
2023/03/28 00:42:17;;;;;;;50.17;8.77;;;15.20;53.40;;;;;;5086729;28;20206;-88
2023/03/28 00:44:47;;;;;;;34.60;7.40;;;15.10;53.40;;;;;;5078349;28;20206;-88
2023/03/28 00:47:25;;;;;;;46.13;8.87;;;15.10;53.40;;;;;;5085413;28;20763;-88
2023/03/28 00:49:55;;;;;;;71.17;10.47;;;15.10;53.30;;;;;;5082789;28;20294;-88
2023/03/28 00:52:28;;;;;;;52.00;9.37;;;15.00;53.30;;;;;;5086863;28;20215;-88
2023/03/28 00:54:56;;;;;;;28.27;6.97;;;15.10;53.30;;;;;;5071810;28;20214;-88
2023/03/28 00:57:27;;;;;;;32.63;7.57;;;15.00;53.30;;;;;;5086555;28;20543;-89
2023/03/28 00:59:54;;;;;;;33.03;8.17;;;15.00;53.30;;;;;;5087487;28;20203;-91
2023/03/28 01:02:21;;;;;;;32.63;8.33;;;15.00;53.30;;;;;;5088081;28;20220;-87
2023/03/28 01:04:56;;;;;;;33.73;7.57;;;15.00;53.30;;;;;;5085640;28;20214;-90
2023/03/28 01:07:27;;;;;;;30.70;7.47;;;15.00;53.80;;;;;;5085056;28;20593;-87
2023/03/28 01:09:54;;;;;;;33.93;8.23;;;14.90;53.20;;;;;;5075549;28;20203;-89
2023/03/28 01:12:22;;;;;;;30.87;7.63;;;14.90;53.20;;;;;;5087308;28;20199;-88
2023/03/28 01:14:50;;;;;;;39.50;8.63;;;14.90;53.20;;;;;;5087140;28;20206;-88
2023/03/28 01:17:17;;;;;;;29.80;7.00;;;14.90;53.20;;;;;;5086926;28;20654;-89
2023/03/28 01:19:57;;;;;;;34.17;7.97;;;14.90;53.20;;;;;;5087402;28;20666;-88
2023/03/28 01:23:04;;;;;;;30.33;7.83;;;14.80;53.10;;;;;;5086089;28;20209;-89
2023/03/28 01:25:58;;;;;;;31.73;7.63;;;14.90;53.10;;;;;;5086398;28;20256;-88
2023/03/28 01:28:38;;;;;;;54.17;9.80;;;14.80;53.00;;;;;;5074485;28;20215;-88
2023/03/28 01:31:38;;;;;;;44.07;8.83;;;14.80;53.10;;;;;;5085226;28;20198;-90
2023/03/28 01:34:32;;;;;;;30.33;7.80;;;14.80;53.00;;;;;;5062743;28;20231;-87
2023/03/28 01:37:25;;;;;;;29.03;7.47;;;14.80;53.10;;;;;;5079098;28;20213;-90
2023/03/28 01:40:15;;;;;;;54.80;9.63;;;14.80;53.00;;;;;;5085595;28;20657;-87
2023/03/28 01:42:53;;;;;;;31.30;7.03;;;14.70;53.00;;;;;;5086003;28;20293;-88
2023/03/28 01:45:25;;;;;;;40.40;8.73;;;14.70;53.10;;;;;;5088587;28;20203;-90
2023/03/28 01:48:01;;;;;;;49.83;9.07;;;14.70;53.10;;;;;;5088202;28;20708;-89
2023/03/28 01:50:32;;;;;;;35.63;7.53;;;14.70;53.10;;;;;;5087989;28;20210;-88
2023/03/28 01:53:07;;;;;;;32.40;7.83;;;14.70;53.20;;;;;;5087652;28;20214;-87
2023/03/28 01:55:38;;;;;;;26.80;6.97;;;14.60;53.00;;;;;;5087799;28;20214;-88
2023/03/28 01:58:11;;;;;;;33.93;7.47;;;14.60;53.00;;;;;;5085932;28;20209;-88
2023/03/28 02:00:42;;;;;;;21.40;6.57;;;14.60;53.00;;;;;;5088041;28;20190;-88
2023/03/28 02:03:17;;;;;;;36.97;7.90;;;14.60;53.00;;;;;;5087590;28;20285;-88
2023/03/28 02:05:46;;;;;;;31.60;7.97;;;14.60;53.00;;;;;;5087507;28;20210;-87
2023/03/28 02:08:15;;;;;;;30.37;7.57;;;14.60;53.00;;;;;;5086655;28;20212;-89
2023/03/28 02:10:44;;;;;;;30.17;7.47;;;14.50;52.90;;;;;;5088451;28;20335;-88
2023/03/28 02:13:15;;;;;;;33.80;7.60;;;14.60;53.00;;;;;;5090437;28;20230;-88
2023/03/28 02:15:44;;;;;;;27.50;7.23;;;14.60;53.00;;;;;;5089879;28;20655;-88
2023/03/28 02:18:15;;;;;;;34.87;7.60;;;14.40;52.90;;;;;;5083185;28;20579;-88
2023/03/28 02:20:44;;;;;;;30.67;7.50;;;14.50;52.90;;;;;;5085751;28;20213;-88
2023/03/28 02:23:17;;;;;;;30.60;7.80;;;14.50;52.90;;;;;;5083645;28;20213;-88
2023/03/28 02:25:44;;;;;;;36.47;8.17;;;14.50;52.90;;;;;;5090099;28;20207;-89
2023/03/28 02:28:13;;;;;;;32.30;7.97;;;14.40;52.90;;;;;;5091649;28;20623;-88
2023/03/28 02:30:40;;;;;;;29.93;7.57;;;14.50;52.90;;;;;;5088826;28;20205;-88
2023/03/28 02:33:23;;;;;;;40.53;8.30;;;14.40;52.90;;;;;;5089173;28;20223;-91
2023/03/28 02:35:59;;;;;;;69.20;11.03;;;14.40;52.90;;;;;;5085805;28;20223;-89
2023/03/28 02:38:33;;;;;;;27.40;7.30;;;14.40;52.90;;;;;;5070695;28;20198;-89
2023/03/28 02:41:09;;;;;;;34.10;7.97;;;14.40;52.90;;;;;;5070974;28;20203;-88
2023/03/28 02:43:51;;;;;;;32.03;7.90;;;14.40;52.90;;;;;;5071165;28;20187;-90
2023/03/28 02:46:23;;;;;;;61.73;9.50;;;14.40;52.80;;;;;;5076603;28;20210;-88
2023/03/28 02:49:32;;;;;;;33.00;7.70;;;14.40;52.90;;;;;;5086140;28;20214;-87
2023/03/28 02:52:08;;;;;;;33.17;7.23;;;14.40;52.80;;;;;;5047759;28;20554;-90
2023/03/28 02:54:43;;;;;;;32.60;7.43;;;14.30;52.80;;;;;;5082742;28;20232;-88
2023/03/28 02:57:17;;;;;;;36.17;7.87;;;14.30;52.80;;;;;;5089515;28;20273;-88
2023/03/28 02:59:48;;;;;;;29.57;7.77;;;14.30;52.80;;;;;;5089760;28;20207;-88
2023/03/28 03:02:17;;;;;;;34.97;8.23;;;14.30;52.80;;;;;;5090708;28;20198;-88
2023/03/28 03:04:45;;;;;;;33.90;7.53;;;14.30;52.80;;;;;;5090910;28;20245;-88
2023/03/28 03:07:12;;;;;;;30.37;7.40;;;14.20;52.70;;;;;;5089802;28;20455;-89
2023/03/28 03:09:41;;;;;;;32.30;7.80;;;14.20;52.70;;;;;;5090838;28;20210;-88
2023/03/28 03:12:08;;;;;;;39.03;7.97;;;14.20;52.70;;;;;;5090471;28;20228;-88
2023/03/28 03:14:35;;;;;;;27.50;7.17;;;14.20;52.70;;;;;;5087580;28;20220;-88
2023/03/28 03:17:04;;;;;;;43.07;8.37;;;14.20;52.70;;;;;;5084060;28;20187;-89
2023/03/28 03:19:31;;;;;;;32.83;7.43;;;14.20;52.70;;;;;;5090509;28;20222;-88
2023/03/28 03:21:58;;;;;;;26.87;7.00;;;14.20;52.70;;;;;;5090029;28;20187;-88
2023/03/28 03:24:25;;;;;;;37.93;7.83;;;14.10;52.60;;;;;;5090452;28;20211;-88
2023/03/28 03:26:53;;;;;;;47.83;9.47;;;14.20;52.70;;;;;;5089515;28;20221;-89
2023/03/28 03:29:20;;;;;;;47.47;9.00;;;14.20;52.70;;;;;;5087679;28;20206;-88
2023/03/28 03:31:47;;;;;;;31.10;7.37;;;14.20;52.70;;;;;;5090226;28;20213;-88
2023/03/28 03:34:14;;;;;;;33.37;7.83;;;14.10;52.60;;;;;;5090027;28;20597;-88
2023/03/28 03:36:41;;;;;;;40.10;8.63;;;14.10;52.60;;;;;;5090264;28;20228;-89
2023/03/28 03:39:08;;;;;;;30.80;7.43;;;14.10;52.60;;;;;;5087498;28;20215;-88
2023/03/28 03:41:35;;;;;;;25.30;7.43;;;14.10;52.60;;;;;;5089859;28;20657;-88
2023/03/28 03:44:03;;;;;;;47.57;8.47;;;14.10;52.60;;;;;;5089518;28;20221;-87
2023/03/28 03:46:31;;;;;;;32.00;8.03;;;14.10;52.60;;;;;;5088207;28;20212;-88
2023/03/28 03:48:58;;;;;;;34.47;7.50;;;14.10;52.60;;;;;;5088233;28;20220;-88
2023/03/28 03:51:26;;;;;;;34.63;7.90;;;14.00;52.60;;;;;;5089652;28;20209;-87
2023/03/28 03:53:54;;;;;;;27.00;7.27;;;14.10;52.60;;;;;;5088675;28;20233;-88
2023/03/28 03:56:21;;;;;;;29.90;7.70;;;14.10;52.60;;;;;;5089811;28;20207;-88
2023/03/28 03:58:48;;;;;;;32.83;7.37;;;14.00;52.60;;;;;;5088537;28;20228;-88
2023/03/28 04:01:16;;;;;;;57.27;8.60;;;13.90;52.50;;;;;;5088772;28;20204;-88
2023/03/28 04:03:43;;;;;;;31.93;7.87;;;14.00;52.50;;;;;;5087378;28;20196;-88
2023/03/28 04:06:10;;;;;;;27.43;6.90;;;13.90;52.50;;;;;;5089760;28;20733;-89
2023/03/28 04:08:37;;;;;;;30.97;7.87;;;14.00;52.60;;;;;;5089617;28;20295;-88
2023/03/28 04:11:04;;;;;;;27.33;7.47;;;14.00;52.50;;;;;;5085854;28;20201;-89
2023/03/28 04:13:31;;;;;;;54.13;9.07;;;14.00;52.50;;;;;;5086723;28;20257;-89
2023/03/28 04:15:58;;;;;;;30.50;7.47;;;13.90;52.40;;;;;;5089737;28;20213;-88
2023/03/28 04:18:28;;;;;;;28.63;7.47;;;13.90;52.50;;;;;;5086936;28;20193;-88
2023/03/28 04:20:58;;;;;;;69.77;11.17;;;13.90;52.50;;;;;;5085049;28;20208;-89
2023/03/28 04:23:25;;;;;;;31.27;7.77;;;13.90;52.50;;;;;;5088693;28;20285;-88
2023/03/28 04:25:54;;;;;;;36.17;7.67;;;13.90;53.00;;;;;;5087166;28;20230;-88
2023/03/28 04:28:24;;;;;;;40.20;8.27;;;13.90;52.50;;;;;;5088553;28;20235;-88
2023/03/28 04:30:53;;;;;;;45.03;8.70;;;13.90;52.50;;;;;;5087578;28;20197;-88
2023/03/28 04:33:23;;;;;;;33.60;7.57;;;13.90;52.50;;;;;;5087561;28;20277;-88
2023/03/28 04:35:55;;;;;;;37.37;7.33;;;13.80;52.40;;;;;;5087725;28;20612;-88
2023/03/28 04:38:25;;;;;;;25.43;7.07;;;13.90;52.50;;;;;;5088264;28;20209;-88
2023/03/28 04:40:56;;;;;;;53.30;9.27;;;13.80;52.40;;;;;;5085052;28;20219;-89
2023/03/28 04:43:27;;;;;;;39.03;7.83;;;13.80;52.40;;;;;;5088395;28;20224;-89
2023/03/28 04:45:55;;;;;;;29.27;7.50;;;13.80;52.40;;;;;;5086853;28;20196;-89
2023/03/28 04:48:23;;;;;;;39.03;8.13;;;13.90;52.50;;;;;;5086705;28;20231;-88
2023/03/28 04:50:50;;;;;;;36.80;7.87;;;13.80;52.40;;;;;;5088105;28;20220;-88
2023/03/28 04:53:18;;;;;;;35.23;7.87;;;13.80;52.40;;;;;;5087404;28;20205;-88
2023/03/28 04:55:48;;;;;;;32.33;8.00;;;13.80;52.40;;;;;;5077429;28;20210;-88
2023/03/28 04:58:16;;;;;;;31.40;7.60;;;13.70;52.30;;;;;;5086249;28;20200;-88
2023/03/28 05:00:43;;;;;;;34.37;8.10;;;13.70;52.30;;;;;;5088145;28;20202;-89
2023/03/28 05:03:13;;;;;;;32.40;7.90;;;13.70;52.30;;;;;;5083560;28;20195;-88
2023/03/28 05:05:40;;;;;;;34.30;8.10;;;13.70;52.30;;;;;;5081440;28;20200;-88
2023/03/28 05:08:07;;;;;;;32.53;7.90;;;13.70;52.30;;;;;;5088329;28;20207;-88
2023/03/28 05:10:35;;;;;;;27.30;7.50;;;13.70;52.30;;;;;;5085142;28;20264;-88
2023/03/28 05:13:02;;;;;;;34.03;8.10;;;13.70;52.30;;;;;;5087894;28;20198;-89
2023/03/28 05:15:30;;;;;;;31.80;7.90;;;13.70;52.30;;;;;;5086903;28;20234;-88
2023/03/28 05:17:58;;;;;;;37.97;8.80;;;13.70;52.30;;;;;;5087473;28;20290;-89
2023/03/28 05:20:25;;;;;;;33.10;7.97;;;13.70;52.30;;;;;;5084510;28;20678;-88
2023/03/28 05:22:52;;;;;;;35.87;8.37;;;13.70;52.30;;;;;;5086636;28;20207;-88
2023/03/28 05:25:20;;;;;;;43.80;8.43;;;13.70;52.30;;;;;;5088128;28;20245;-88
2023/03/28 05:27:51;;;;;;;32.70;8.13;;;13.80;52.40;;;;;;5087266;28;20665;-88
2023/03/28 05:30:18;;;;;;;28.67;7.87;;;13.60;52.20;;;;;;5087009;28;21000;-88
2023/03/28 05:32:45;;;;;;;39.30;8.17;;;13.60;52.20;;;;;;5088079;28;20199;-89
2023/03/28 05:35:14;;;;;;;36.60;8.60;;;13.60;52.20;;;;;;5087414;28;20660;-89
2023/03/28 05:37:42;;;;;;;34.50;7.90;;;13.60;52.20;;;;;;5086633;28;20669;-91
2023/03/28 05:40:10;;;;;;;29.13;7.83;;;13.60;52.20;;;;;;5086251;28;20210;-88
2023/03/28 05:42:38;;;;;;;29.27;7.60;;;13.50;52.10;;;;;;5088769;28;20664;-89
2023/03/28 05:45:09;;;;;;;33.30;7.93;;;13.60;52.20;;;;;;5090872;28;20211;-91
2023/03/28 05:47:36;;;;;;;38.07;8.47;;;13.50;52.10;;;;;;5090431;28;20202;-91
2023/03/28 05:50:04;;;;;;;38.10;8.57;;;13.60;52.30;;;;;;5090069;28;20201;-88
2023/03/28 05:52:31;;;;;;;35.13;7.90;;;13.50;52.10;;;;;;5092222;28;20185;-88
2023/03/28 05:54:57;;;;;;;41.07;8.60;;;13.50;52.20;;;;;;5091192;28;20245;-89
2023/03/28 05:57:25;;;;;;;47.10;8.53;;;13.50;52.20;;;;;;5089663;28;20691;-88
2023/03/28 05:59:52;;;;;;;57.37;9.90;;;13.50;52.10;;;;;;5087633;28;20291;-89
2023/03/28 06:02:23;;;;;;;28.37;8.13;;;13.50;52.20;;;;;;5088376;28;20203;-88
2023/03/28 06:04:52;;;;;;;29.87;7.43;;;13.50;52.10;;;;;;5091629;28;20203;-88
2023/03/28 06:07:19;;;;;;;32.20;7.90;;;13.50;52.20;;;;;;5091500;28;20211;-88
2023/03/28 06:09:47;;;;;;;36.53;8.00;;;13.50;52.20;;;;;;5090683;28;20200;-89
2023/03/28 06:12:14;;;;;;;57.33;9.53;;;13.40;52.70;;;;;;5087432;28;20212;-87
2023/03/28 06:14:41;;;;;;;34.87;7.70;;;13.50;52.20;;;;;;5091741;28;20248;-89
2023/03/28 06:17:08;;;;;;;38.73;8.03;;;13.40;52.10;;;;;;5090925;28;20203;-88
2023/03/28 06:19:36;;;;;;;28.40;8.03;;;13.40;52.10;;;;;;5090628;28;20201;-88
2023/03/28 06:22:03;;;;;;;48.63;9.27;;;13.40;52.10;;;;;;5086719;28;20205;-89
2023/03/28 06:24:30;;;;;;;30.30;8.03;;;13.40;52.10;;;;;;5090252;28;20758;-89
2023/03/28 06:26:57;;;;;;;43.70;9.23;;;13.40;52.20;;;;;;5090309;28;20193;-88
2023/03/28 06:29:24;;;;;;;34.83;8.37;;;13.40;52.10;;;;;;5070880;28;20204;-88
2023/03/28 06:31:51;;;;;;;27.97;7.43;;;13.40;52.10;;;;;;5085976;28;20821;-92
2023/03/28 06:34:18;;;;;;;38.40;8.60;;;13.40;52.20;;;;;;5091094;28;20327;-89
2023/03/28 06:36:46;;;;;;;41.13;8.77;;;13.40;52.10;;;;;;5091202;28;20205;-89
2023/03/28 06:39:14;;;;;;;66.10;10.77;;;13.40;52.10;;;;;;5086481;28;20223;-90
2023/03/28 06:41:41;;;;;;;48.07;9.70;;;13.30;52.00;;;;;;5088650;28;20201;-90
2023/03/28 06:44:08;;;;;;;42.10;8.93;;;13.30;52.00;;;;;;5088412;28;20210;-89
2023/03/28 06:46:35;;;;;;;37.13;8.67;;;13.30;52.00;;;;;;5090083;28;20205;-90
2023/03/28 06:49:02;;;;;;;24.03;7.87;;;13.30;52.10;;;;;;5088249;28;20567;-89
2023/03/28 06:51:29;;;;;;;33.83;8.33;;;13.30;52.10;;;;;;5091733;28;20309;-91
2023/03/28 06:53:57;;;;;;;51.33;9.77;;;13.40;52.20;;;;;;5089789;28;20262;-91
2023/03/28 06:56:24;;;;;;;32.30;7.37;;;13.30;52.10;;;;;;5090941;28;20196;-92
2023/03/28 06:58:51;;;;;;;27.63;8.23;;;13.40;52.20;;;;;;5091362;28;20199;-93
2023/03/28 07:01:18;;;;;;;40.37;9.10;;;13.30;52.20;;;;;;5092543;28;20205;-92
2023/03/28 07:03:45;;;;;;;34.80;8.57;;;13.30;52.80;;;;;;5090728;28;20232;-91
2023/03/28 07:06:12;;;;;;;33.90;8.77;;;13.30;52.30;;;;;;5090720;28;20208;-93
2023/03/28 07:08:39;;;;;;;25.83;7.57;;;13.30;52.30;;;;;;5091236;28;20214;-91
2023/03/28 07:11:08;;;;;;;29.93;8.10;;;13.30;52.30;;;;;;5092483;28;20259;-89
2023/03/28 07:13:37;;;;;;;29.80;7.27;;;13.30;52.30;;;;;;5088622;28;20209;-90
2023/03/28 07:16:06;;;;;;;38.37;9.07;;;13.30;52.30;;;;;;5091667;28;20598;-86
2023/03/28 07:18:33;;;;;;;36.97;9.53;;;13.30;52.30;;;;;;5092785;28;20200;-87
2023/03/28 07:21:06;;;;;;;36.17;9.63;;;13.30;52.30;;;;;;5093456;28;20195;-88
2023/03/28 07:23:33;;;;;;;37.03;10.20;;;13.30;52.30;;;;;;5092424;28;20205;-87
2023/03/28 07:26:01;;;;;;;35.00;8.63;;;13.30;52.30;;;;;;5091826;28;20208;-87
2023/03/28 07:28:29;;;;;;;39.33;9.13;;;13.30;52.30;;;;;;5090690;28;20204;-87
2023/03/28 07:30:56;;;;;;;34.53;9.07;;;13.30;52.30;;;;;;5091266;28;20208;-87
2023/03/28 07:33:23;;;;;;;40.77;8.50;;;13.40;52.40;;;;;;5092187;28;20261;-87
2023/03/28 07:35:51;;;;;;;51.40;10.60;;;13.30;52.40;;;;;;5092466;28;20244;-87
2023/03/28 07:38:18;;;;;;;30.00;7.07;;;13.30;52.30;;;;;;5097468;28;20279;-87
2023/03/28 07:40:45;;;;;;;40.40;8.23;;;13.30;52.30;;;;;;5096040;28;20191;-87
2023/03/28 07:43:13;;;;;;;29.53;8.00;;;13.30;53.00;;;;;;5097945;28;20203;-87
2023/03/28 07:45:41;;;;;;;37.87;8.70;;;13.20;52.20;;;;;;5098045;28;20194;-87
2023/03/28 07:48:08;;;;;;;60.07;10.23;;;13.20;52.20;;;;;;5090525;28;20340;-91
2023/03/28 07:50:35;;;;;;;32.03;8.17;;;13.40;52.40;;;;;;5091930;28;20204;-88
2023/03/28 07:53:03;;;;;;;31.33;8.07;;;13.30;52.30;;;;;;5096889;28;20199;-87
2023/03/28 07:55:32;;;;;;;37.70;8.87;;;13.30;52.20;;;;;;5094404;28;20228;-87
2023/03/28 07:58:01;;;;;;;32.23;7.73;;;13.30;52.30;;;;;;5094842;28;20214;-89
2023/03/28 08:00:28;;;;;;;35.47;8.07;;;13.30;52.30;;;;;;5093880;28;20209;-88
2023/03/28 08:02:59;;;;;;;41.67;8.73;;;13.30;52.30;;;;;;5096951;28;20700;-86
2023/03/28 08:05:26;;;;;;;55.97;9.57;;;13.30;52.20;;;;;;5087675;28;20216;-89
2023/03/28 08:07:53;;;;;;;48.90;9.70;;;13.30;52.30;;;;;;5085001;28;20258;-90
2023/03/28 08:10:20;;;;;;;33.27;8.27;;;13.20;52.20;;;;;;5091558;28;20611;-94
2023/03/28 08:12:47;;;;;;;27.77;7.57;;;13.30;52.30;;;;;;5098142;28;21047;-87
2023/03/28 08:15:14;;;;;;;28.10;6.80;;;13.30;52.30;;;;;;5090196;28;20214;-86
2023/03/28 08:17:41;;;;;;;31.83;7.03;;;13.30;52.30;;;;;;5096520;28;20200;-87
2023/03/28 08:20:11;;;;;;;37.33;8.30;;;13.30;52.30;;;;;;5095467;28;20206;-86
2023/03/28 08:22:38;;;;;;;32.83;7.53;;;13.30;52.30;;;;;;5091045;28;20687;-89
2023/03/28 08:25:06;;;;;;;30.03;7.70;;;13.30;52.30;;;;;;5094022;28;20212;-87
2023/03/28 08:27:36;;;;;;;34.93;8.07;;;13.30;52.40;;;;;;5076907;28;20236;-87
2023/03/28 08:30:05;;;;;;;61.87;9.63;;;13.30;52.30;;;;;;5081254;28;20271;-86
2023/03/28 08:32:33;;;;;;;36.30;7.87;;;13.30;52.40;;;;;;5094093;28;20673;-89
2023/03/28 08:35:02;;;;;;;34.63;7.60;;;13.30;52.40;;;;;;5093683;28;20239;-87
2023/03/28 08:37:30;;;;;;;36.10;7.83;;;13.30;52.40;;;;;;5089425;28;20219;-87
2023/03/28 08:39:57;;;;;;;30.97;8.10;;;13.30;52.40;;;;;;5089663;28;20204;-87
2023/03/28 08:42:55;;;;;;;34.17;8.13;;;13.30;52.30;;;;;;5089554;28;20303;-86
2023/03/28 08:45:33;;;;;;;30.37;7.37;;;13.30;52.30;;;;;;5085421;28;20200;-88
2023/03/28 08:48:18;;;;;;;37.43;8.10;;;13.30;52.40;;;;;;5087139;28;20304;-86
2023/03/28 08:50:47;;;;;;;33.33;8.03;;;13.30;52.40;;;;;;5088625;28;20212;-88
2023/03/28 08:53:25;;;;;;;42.60;8.63;;;13.30;52.40;;;;;;5088751;28;20219;-87
2023/03/28 08:55:53;;;;;;;33.07;8.33;;;13.30;52.40;;;;;;5088279;28;20235;-87
2023/03/28 08:58:22;;;;;;;33.47;8.17;;;13.30;52.40;;;;;;5089026;28;20208;-87
2023/03/28 09:00:51;;;;;;;33.90;7.70;;;13.30;52.40;;;;;;5089197;28;20203;-87
2023/03/28 09:03:20;;;;;;;51.37;9.13;;;13.30;52.40;;;;;;5084044;28;20210;-88
2023/03/28 09:05:50;;;;;;;31.57;7.67;;;13.30;52.40;;;;;;5088337;28;20213;-88
2023/03/28 09:08:36;;;;;;;32.43;7.50;;;13.30;52.40;;;;;;5089013;28;20251;-86
2023/03/28 09:11:12;;;;;;;25.20;6.97;;;13.30;52.40;;;;;;5088519;28;20206;-87
2023/03/28 09:13:49;;;;;;;32.30;8.10;;;13.30;52.40;;;;;;5088465;28;20323;-87
2023/03/28 09:16:31;;;;;;;29.23;7.37;;;13.30;52.40;;;;;;5088466;28;20957;-87
2023/03/28 09:19:32;;;;;;;49.87;8.70;;;13.30;52.40;;;;;;5082673;28;20200;-87
2023/03/28 09:22:10;;;;;;;32.70;7.50;;;13.40;52.50;;;;;;5064201;28;20210;-88
2023/03/28 09:25:03;;;;;;;38.47;7.57;;;13.40;52.50;;;;;;5088301;28;20200;-87
2023/03/28 09:27:33;;;;;;;32.90;7.87;;;13.40;52.50;;;;;;5089067;28;20204;-88
2023/03/28 09:30:10;;;;;;;28.83;6.90;;;13.50;52.60;;;;;;5090688;28;20573;-86
2023/03/28 09:32:39;;;;;;;52.63;8.87;;;13.40;52.50;;;;;;5078053;28;20200;-95
2023/03/28 09:35:17;;;;;;;26.87;6.97;;;13.40;52.50;;;;;;5085495;28;20317;-94
2023/03/28 09:37:48;;;;;;;34.17;7.07;;;13.40;52.50;;;;;;5089872;28;20311;-94
2023/03/28 09:40:21;;;;;;;38.50;7.83;;;13.40;52.50;;;;;;5086983;28;20256;-89
2023/03/28 09:42:57;;;;;;;29.20;6.57;;;13.40;52.50;;;;;;5082243;28;20535;-95
2023/03/28 09:45:43;;;;;;;29.57;7.37;;;13.40;52.50;;;;;;5090170;28;20212;-93
2023/03/28 09:48:15;;;;;;;30.53;7.33;;;13.40;52.50;;;;;;5090147;28;20559;-87
2023/03/28 09:50:42;;;;;;;31.30;7.17;;;13.40;52.50;;;;;;5089185;28;20653;-91
2023/03/28 09:53:20;;;;;;;28.60;7.30;;;13.50;52.50;;;;;;5088461;28;20189;-88
2023/03/28 09:55:48;;;;;;;32.03;7.47;;;13.40;52.50;;;;;;5086554;28;20242;-92
2023/03/28 09:58:16;;;;;;;34.00;7.50;;;13.40;52.50;;;;;;5088579;28;20194;-91
2023/03/28 10:00:47;;;;;;;37.90;7.63;;;13.50;52.60;;;;;;5085995;28;20217;-90
2023/03/28 10:03:22;;;;;;;32.27;7.00;;;13.60;52.70;;;;;;5072729;28;20211;-88
2023/03/28 10:05:50;;;;;;;30.43;6.53;;;13.50;52.60;;;;;;5071406;28;20217;-90
2023/03/28 10:08:24;;;;;;;32.83;6.90;;;13.50;52.60;;;;;;5083870;28;20208;-89
2023/03/28 10:11:02;;;;;;;42.20;7.43;;;13.50;52.60;;;;;;5085732;28;20194;-89
2023/03/28 10:13:36;;;;;;;93.73;11.67;;;13.50;52.60;;;;;;5083265;28;20196;-90
2023/03/28 10:16:06;;;;;;;52.83;8.30;;;13.50;52.60;;;;;;5074382;28;21537;-90
2023/03/28 10:18:33;;;;;;;72.70;9.93;;;13.60;52.60;;;;;;5071846;28;20198;-90
2023/03/28 10:21:13;;;;;;;36.93;7.17;;;13.60;52.60;;;;;;5080642;28;20210;-89
2023/03/28 10:23:41;;;;;;;20.40;5.70;;;13.60;52.70;;;;;;5086786;28;20235;-90
2023/03/28 10:26:16;;;;;;;37.50;7.03;;;13.60;52.60;;;;;;5086554;28;20217;-90
2023/03/28 10:28:43;;;;;;;23.47;5.93;;;13.60;52.70;;;;;;5088263;28;20237;-89
2023/03/28 10:31:27;;;;;;;35.20;7.27;;;13.60;52.70;;;;;;5086633;28;20761;-91
2023/03/28 10:33:55;;;;;;;34.00;6.70;;;13.60;53.30;;;;;;5087222;28;20213;-90
2023/03/28 10:36:30;;;;;;;31.63;6.23;;;13.70;52.70;;;;;;5088719;28;20234;-90
2023/03/28 10:38:57;;;;;;;26.53;6.33;;;13.60;52.60;;;;;;5090954;28;20212;-89
2023/03/28 10:41:26;;;;;;;39.17;7.83;;;13.70;52.70;;;;;;5091024;28;20208;-90
2023/03/28 10:43:54;;;;;;;59.10;9.07;;;13.70;52.70;;;;;;5079991;28;20214;-89
2023/03/28 10:46:24;;;;;;;48.57;7.70;;;13.70;52.70;;;;;;5089623;28;20247;-89
2023/03/28 10:48:56;;;;;;;27.43;6.63;;;13.80;52.80;;;;;;5089172;28;20868;-91
2023/03/28 10:51:26;;;;;;;27.03;6.40;;;13.70;52.70;;;;;;5092013;28;20216;-93
2023/03/28 10:54:14;;;;;;;49.83;8.43;;;13.70;52.70;;;;;;5099227;28;20238;-96
2023/03/28 10:56:51;;;;;;;43.30;7.60;;;13.80;52.50;;;;;;5091598;28;20231;-94
2023/03/28 10:59:47;;;;;;;52.37;8.30;;;13.80;52.50;;;;;;5091589;28;20232;-94
2023/03/28 11:02:43;;;;;;;50.53;8.97;;;13.80;52.40;;;;;;5075278;28;20752;-94
2023/03/28 11:05:48;;;;;;;40.63;7.53;;;13.80;52.40;;;;;;5098743;28;20313;-94
2023/03/28 11:08:32;;;;;;;45.30;7.90;;;13.90;52.50;;;;;;5081776;28;20195;-94
2023/03/28 11:11:10;;;;;;;46.90;8.23;;;13.90;52.50;;;;;;5089035;28;20203;-94
2023/03/28 11:13:49;;;;;;;42.93;7.30;;;13.90;52.60;;;;;;5091453;28;20205;-94
2023/03/28 11:16:24;;;;;;;51.73;8.73;;;13.90;52.60;;;;;;5092108;28;20257;-94
2023/03/28 11:19:11;;;;;;;34.23;7.27;;;13.90;52.60;;;;;;5091403;28;20203;-94
2023/03/28 11:21:48;;;;;;;37.37;7.23;;;13.90;52.60;;;;;;5092095;28;20833;-95
2023/03/28 11:24:27;;;;;;;33.60;6.63;;;13.90;52.60;;;;;;5091383;28;20211;-94
2023/03/28 11:27:07;;;;;;;41.60;7.47;;;13.90;52.60;;;;;;5091582;28;20636;-94
2023/03/28 11:30:05;;;;;;;56.77;8.27;;;13.90;52.60;;;;;;5091854;28;20645;-94
2023/03/28 11:32:40;;;;;;;37.70;7.20;;;14.00;52.70;;;;;;5091702;28;20221;-94
2023/03/28 11:35:17;;;;;;;68.20;10.00;;;14.00;52.80;;;;;;5096406;22;20247;-94
2023/03/28 11:38:25;;;;;;;41.20;6.83;;;14.00;52.80;;;;;;5090322;28;20229;-94
2023/03/28 11:40:56;;;;;;;46.03;7.70;;;14.00;52.80;;;;;;5078433;28;20309;-94
2023/03/28 11:43:48;;;;;;;45.00;7.10;;;14.00;52.80;;;;;;5070522;28;20225;-94
2023/03/28 11:46:22;;;;;;;40.30;6.90;;;14.00;52.80;;;;;;5060985;28;20322;-94
2023/03/28 11:48:55;;;;;;;44.40;7.53;;;14.10;52.80;;;;;;5073605;28;20263;-94
2023/03/28 11:51:27;;;;;;;41.30;7.07;;;14.00;52.80;;;;;;5091276;28;20229;-95
2023/03/28 11:54:17;;;;;;;42.70;7.37;;;14.10;52.90;;;;;;5091065;28;20657;-94
2023/03/28 11:56:52;;;;;;;41.73;7.20;;;14.10;53.00;;;;;;5084253;28;20324;-94
2023/03/28 11:59:26;;;;;;;42.50;7.63;;;14.10;52.90;;;;;;5091210;28;20297;-94
2023/03/28 12:02:04;;;;;;;33.07;6.80;;;14.10;53.00;;;;;;5091188;28;20226;-94
2023/03/28 12:04:52;;;;;;;48.63;8.00;;;14.10;52.90;;;;;;5089842;28;20271;-94
2023/03/28 12:07:25;;;;;;;42.87;7.57;;;14.10;52.90;;;;;;5090256;28;20209;-94
2023/03/28 12:10:18;;;;;;;34.53;6.67;;;14.20;53.00;;;;;;5090972;28;20213;-94
2023/03/28 12:12:55;;;;;;;52.80;8.17;;;14.20;53.00;;;;;;5088460;28;20267;-94
2023/03/28 12:15:31;;;;;;;37.83;7.03;;;14.10;52.90;;;;;;5088947;28;20813;-94
2023/03/28 12:18:04;;;;;;;43.83;7.23;;;14.20;53.00;;;;;;5090208;28;20217;-94
2023/03/28 12:20:37;;;;;;;41.00;6.87;;;14.20;53.00;;;;;;5090735;28;20195;-94
2023/03/28 12:23:10;;;;;;;37.17;7.00;;;14.20;53.00;;;;;;5090866;28;20206;-94
2023/03/28 12:25:42;;;;;;;48.63;8.10;;;14.20;53.00;;;;;;5090582;28;20201;-94
2023/03/28 12:28:14;;;;;;;48.03;8.27;;;14.30;53.10;;;;;;5088651;28;20213;-94
2023/03/28 12:30:47;;;;;;;48.47;7.80;;;14.30;53.10;;;;;;5090049;28;20240;-95
2023/03/28 12:33:24;;;;;;;49.57;8.10;;;14.30;53.10;;;;;;5089894;28;20278;-94
2023/03/28 12:36:02;;;;;;;42.67;7.43;;;14.30;53.00;;;;;;5089813;28;20216;-93
2023/03/28 12:38:47;;;;;;;60.63;8.87;;;14.30;53.00;;;;;;5090210;28;20657;-94
2023/03/28 12:41:17;;;;;;;36.73;6.80;;;14.30;53.00;;;;;;5088054;28;20702;-94
2023/03/28 12:43:53;;;;;;;47.10;7.63;;;14.40;53.10;;;;;;5090030;28;20217;-94
2023/03/28 12:46:25;;;;;;;52.30;7.93;;;14.40;53.10;;;;;;5090180;28;20252;-96
2023/03/28 12:49:01;;;;;;;50.93;8.17;;;14.40;53.10;;;;;;5089596;28;20210;-94
2023/03/28 12:51:33;;;;;;;53.83;8.67;;;14.40;53.10;;;;;;5087116;28;20206;-94
2023/03/28 12:54:16;;;;;;;40.97;7.30;;;14.40;53.10;;;;;;5087602;28;20274;-93
2023/03/28 12:56:46;;;;;;;44.43;7.53;;;14.40;53.10;;;;;;5089874;28;20586;-94
2023/03/28 12:59:47;;;;;;;40.20;7.43;;;14.50;53.10;;;;;;5090187;28;20202;-94